Darstellungsparameter: Aktuell verwendete Einstellungen:
Skalierung der Graphiken ... ?
xyx+y,   Skalierungsfaktor:      Skalierung: Modus: x, Faktor: 1
Darstellungszeitraum ... ?
Vom - - bis: - -   Zeitraum: 16.05.2017 - 16.05.2017
Min/Max/Avg-Anzeige ... ?
Zeige MMA aktuell
Zeige MMA Monat
Zeige MMA alles
Zeige --A aktuell
Zeige --A Monat
Zeige --A alles
Keine MMA-Anzeige
MMA:
Average (ber die Originaldaten)
MMA-Basis: 16.05.2017 - 16.05.2017
Quicknavigation für Darstellung... ?
Tage:      1T, 2T, 3T, 5T -1T -2T -3T -5T +1T +2T +3T +5T
Wochen: 1W, 2W, 3W -1W -2W -3W +1W +2W +3W
Monate: 1M, 3M, 6M -1M -3M -6M +1M +3M +6M
Jahre:    1J, 3J, 5J, 10J -1J -3J -5J -10J +1J +3J +5J +10J
Nutze für die Darstellung ... ?
Originaldaten oder Mittelwerte auf ...
Stundenbasis Tagesbasis Wochenbasis
Monatsbasis Jahresbasis      Datenbasis: Original-Daten
Darstellen als:
Statistik (Auto) Statistik J:M      Darstellung:
Zur Graphik,    zurück zur Übersicht aller Sensoren.
 
Tabellarische Datenbersicht: ?
 
Sensor: Nr:Datum:Temp:Abs-Feuchte:Windchill:Wind:
Aussen-T/F 1 16-05-2017 00:00:00 11.8 C 7.79 g/m*3 11.8 C 0 km/h
2 16-05-2017 00:05:00 11.8 C 8 g/m*3 11.8 C 0 km/h
3 16-05-2017 00:10:00 11.8 C 8 g/m*3 11.8 C 0 km/h
4 16-05-2017 00:15:00 11.8 C 8.1 g/m*3 11.8 C 0 km/h
5 16-05-2017 00:20:00 11.8 C 8 g/m*3 11.8 C 0 km/h
6 16-05-2017 00:25:00 11.7 C 7.95 g/m*3 11.7 C 0 km/h
7 16-05-2017 00:30:00 11.8 C 8.1 g/m*3 11.8 C 0 km/h
8 16-05-2017 00:35:00 11.8 C 8.21 g/m*3 11.8 C 0 km/h
9 16-05-2017 00:40:00 11.9 C 8.26 g/m*3 11.9 C 0 km/h
10 16-05-2017 00:45:00 11.9 C 8.26 g/m*3 11.9 C 0 km/h
11 16-05-2017 00:50:00 12 C 8.21 g/m*3 12 C 0 km/h
12 16-05-2017 00:55:00 12.1 C 8.36 g/m*3 12.1 C 0 km/h
13 16-05-2017 01:00:00 12.2 C 8.52 g/m*3 12.2 C 0 km/h
14 16-05-2017 01:05:00 12.3 C 8.58 g/m*3 12.3 C 0 km/h
15 16-05-2017 01:10:00 12.3 C 8.58 g/m*3 12.3 C 0 km/h
16 16-05-2017 01:15:00 12.4 C 8.63 g/m*3 12.4 C 0 km/h
17 16-05-2017 01:20:00 12.4 C 8.3 g/m*3 12.4 C 0 km/h
18 16-05-2017 01:25:00 12.4 C 8.52 g/m*3 12.4 C 0 km/h
19 16-05-2017 01:30:00 12.6 C 8.63 g/m*3 12.6 C 0 km/h
20 16-05-2017 01:35:00 12.6 C 8.63 g/m*3 12.6 C 0 km/h
21 16-05-2017 01:40:00 12.6 C 8.52 g/m*3 12.6 C 0 km/h
22 16-05-2017 01:45:00 12.6 C 8.52 g/m*3 12.6 C 0 km/h
23 16-05-2017 01:50:00 12.6 C 8.52 g/m*3 12.6 C 0 km/h
24 16-05-2017 01:55:00 12.6 C 8.52 g/m*3 12.6 C 0 km/h
25 16-05-2017 02:00:00 12.6 C 8.52 g/m*3 12.6 C 0 km/h
Sensor: Nr:Datum:Temp:Abs-Feuchte:Windchill:Wind:
Aussen-T/F 26 16-05-2017 02:05:00 12.6 C 8.63 g/m*3 12.6 C 0 km/h
27 16-05-2017 02:10:00 12.6 C 8.63 g/m*3 12.6 C 0 km/h
28 16-05-2017 02:15:00 12.6 C 8.41 g/m*3 12.6 C 0 km/h
29 16-05-2017 02:20:00 12.6 C 8.41 g/m*3 12.6 C 0 km/h
30 16-05-2017 02:25:00 12.7 C 8.68 g/m*3 12.7 C 0 km/h
31 16-05-2017 02:30:00 12.7 C 8.46 g/m*3 12.7 C 0 km/h
32 16-05-2017 02:35:00 12.7 C 8.68 g/m*3 12.7 C 0 km/h
33 16-05-2017 02:40:00 12.7 C 8.57 g/m*3 12.7 C 0 km/h
34 16-05-2017 02:45:00 12.6 C 8.74 g/m*3 12.6 C 0 km/h
35 16-05-2017 02:50:00 12.5 C 8.58 g/m*3 12.5 C 0 km/h
36 16-05-2017 02:55:00 12.5 C 8.58 g/m*3 12.5 C 0 km/h
37 16-05-2017 03:00:00 12.4 C 8.52 g/m*3 12.4 C 0 km/h
38 16-05-2017 03:05:00 12.5 C 8.69 g/m*3 12.5 C 0 km/h
39 16-05-2017 03:10:00 12.4 C 8.63 g/m*3 12.4 C 0 km/h
40 16-05-2017 03:15:00 12.4 C 8.63 g/m*3 12.4 C 0 km/h
41 16-05-2017 03:20:00 12.4 C 8.63 g/m*3 12.4 C 0 km/h
42 16-05-2017 03:25:00 12.4 C 8.63 g/m*3 12.4 C 0 km/h
43 16-05-2017 03:30:00 12.3 C 8.58 g/m*3 12.3 C 0 km/h
44 16-05-2017 03:35:00 12.3 C 8.58 g/m*3 12.3 C 0 km/h
45 16-05-2017 03:40:00 12.3 C 8.69 g/m*3 12.3 C 0 km/h
46 16-05-2017 03:45:00 12.3 C 8.58 g/m*3 12.3 C 0 km/h
47 16-05-2017 03:50:00 12.3 C 8.58 g/m*3 12.3 C 0 km/h
48 16-05-2017 03:55:00 12.3 C 8.58 g/m*3 12.3 C 0 km/h
49 16-05-2017 04:00:00 12.2 C 8.63 g/m*3 12.2 C 0 km/h
50 16-05-2017 04:05:00 12.2 C 8.63 g/m*3 12.2 C 0 km/h
Sensor: Nr:Datum:Temp:Abs-Feuchte:Windchill:Wind:
Aussen-T/F 51 16-05-2017 04:10:00 12.2 C 8.52 g/m*3 12.2 C 0 km/h
52 16-05-2017 04:15:00 12.1 C 8.58 g/m*3 12.1 C 0 km/h
53 16-05-2017 04:20:00 12.1 C 8.69 g/m*3 12.1 C 0 km/h
54 16-05-2017 04:25:00 12.1 C 8.58 g/m*3 12.1 C 0 km/h
55 16-05-2017 04:30:00 12.1 C 8.58 g/m*3 12.1 C 0 km/h
56 16-05-2017 04:35:00 12.1 C 8.69 g/m*3 12.1 C 0 km/h
57 16-05-2017 04:40:00 12.2 C 8.74 g/m*3 12.2 C 0 km/h
58 16-05-2017 04:45:00 12.2 C 8.85 g/m*3 12.2 C 0 km/h
59 16-05-2017 04:50:00 12.2 C 8.85 g/m*3 12.2 C 0 km/h
60 16-05-2017 04:55:00 12.1 C 8.79 g/m*3 12.1 C 0 km/h
61 16-05-2017 05:00:00 12.1 C 8.79 g/m*3 12.1 C 0 km/h
62 16-05-2017 05:05:00 12 C 8.63 g/m*3 12 C 0 km/h
63 16-05-2017 05:10:00 11.9 C 8.58 g/m*3 11.9 C 0 km/h
64 16-05-2017 05:15:00 11.8 C 8.63 g/m*3 11.8 C 0 km/h
65 16-05-2017 05:20:00 11.8 C 8.53 g/m*3 11.8 C 0 km/h
66 16-05-2017 05:25:00 11.7 C 8.58 g/m*3 11.7 C 0 km/h
67 16-05-2017 05:30:00 11.7 C 8.68 g/m*3 11.7 C 0 km/h
68 16-05-2017 05:35:00 11.6 C 8.52 g/m*3 11.6 C 0 km/h
69 16-05-2017 05:40:00 11.6 C 8.42 g/m*3 11.6 C 0 km/h
70 16-05-2017 05:45:00 11.5 C 8.47 g/m*3 11.5 C 0 km/h
71 16-05-2017 05:50:00 11.4 C 8.42 g/m*3 11.4 C 0 km/h
72 16-05-2017 05:55:00 11.4 C 8.31 g/m*3 11.4 C 0 km/h
73 16-05-2017 06:00:00 11.3 C 8.16 g/m*3 11.3 C 0 km/h
74 16-05-2017 06:05:00 11.2 C 8.11 g/m*3 11.2 C 0 km/h
75 16-05-2017 06:10:00 11.2 C 8.11 g/m*3 11.2 C 0 km/h
Sensor: Nr:Datum:Temp:Abs-Feuchte:Windchill:Wind:
Aussen-T/F 76 16-05-2017 06:15:00 11.2 C 8.21 g/m*3 11.2 C 0 km/h
77 16-05-2017 06:20:00 11.1 C 8.16 g/m*3 11.1 C 0 km/h
78 16-05-2017 06:25:00 11.1 C 8.26 g/m*3 11.1 C 0 km/h
79 16-05-2017 06:30:00 11 C 8.21 g/m*3 11 C 0 km/h
80 16-05-2017 06:35:00 10.9 C 8.06 g/m*3 10.9 C 0 km/h
81 16-05-2017 06:40:00 10.8 C 8.11 g/m*3 10.8 C 0 km/h
82 16-05-2017 06:45:00 10.8 C 8.11 g/m*3 10.8 C 0 km/h
83 16-05-2017 06:50:00 10.8 C 8.2 g/m*3 10.8 C 0 km/h
84 16-05-2017 06:55:00 10.8 C 8.3 g/m*3 10.8 C 0 km/h
85 16-05-2017 07:00:00 10.9 C 8.36 g/m*3 10.9 C 0 km/h
86 16-05-2017 07:05:00 10.9 C 8.36 g/m*3 10.9 C 0 km/h
87 16-05-2017 07:10:00 11 C 8.41 g/m*3 11 C 0 km/h
88 16-05-2017 07:15:00 11.2 C 8.62 g/m*3 11.2 C 0 km/h
89 16-05-2017 07:20:00 11.3 C 8.77 g/m*3 11.3 C 0 km/h
90 16-05-2017 07:25:00 11.6 C 9.04 g/m*3 11.6 C 0 km/h
91 16-05-2017 07:30:00 11.7 C 8.89 g/m*3 11.7 C 0 km/h
92 16-05-2017 07:35:00 11.9 C 9 g/m*3 11.9 C 0 km/h
93 16-05-2017 07:40:00 12.1 C 9.12 g/m*3 12.1 C 0 km/h
94 16-05-2017 07:45:00 12.3 C 9.12 g/m*3 12.3 C 0 km/h
95 16-05-2017 07:50:00 12.4 C 8.74 g/m*3 12.4 C 0 km/h
96 16-05-2017 07:55:00 12.6 C 8.85 g/m*3 12.6 C 0 km/h
97 16-05-2017 08:00:00 12.9 C 8.9 g/m*3 12.9 C 3.2 km/h
98 16-05-2017 08:05:00 13.1 C 9.01 g/m*3 13.1 C 0 km/h
99 16-05-2017 08:10:00 13.3 C 9.13 g/m*3 13.3 C 0 km/h
100 16-05-2017 08:15:00 13.4 C 9.07 g/m*3 13.4 C 1.6 km/h
Sensor: Nr:Datum:Temp:Abs-Feuchte:Windchill:Wind:
Aussen-T/F 101 16-05-2017 08:20:00 13.6 C 8.94 g/m*3 13.6 C 0 km/h
102 16-05-2017 08:25:00 13.8 C 9.06 g/m*3 13.8 C 0 km/h
103 16-05-2017 08:30:00 13.9 C 8.87 g/m*3 13.9 C 0 km/h
104 16-05-2017 08:35:00 14.1 C 9.1 g/m*3 14.1 C 1.6 km/h
105 16-05-2017 08:40:00 14.3 C 9.21 g/m*3 14.3 C 0 km/h
106 16-05-2017 08:45:00 14.4 C 9.15 g/m*3 14.4 C 0 km/h
107 16-05-2017 08:50:00 14.6 C 9.39 g/m*3 14.6 C 0 km/h
108 16-05-2017 08:55:00 14.6 C 9.39 g/m*3 14.6 C 1.6 km/h
109 16-05-2017 09:00:00 14.7 C 9.19 g/m*3 14.7 C 1.6 km/h
110 16-05-2017 09:05:00 14.7 C 9.69 g/m*3 14.7 C 0 km/h
111 16-05-2017 09:10:00 14.7 C 9.82 g/m*3 14.7 C 0 km/h
112 16-05-2017 09:15:00 14.7 C 9.82 g/m*3 14.7 C 0 km/h
113 16-05-2017 09:20:00 14.6 C 9.89 g/m*3 14.6 C 0 km/h
114 16-05-2017 09:25:00 14.6 C 9.89 g/m*3 14.6 C 0 km/h
115 16-05-2017 09:30:00 14.6 C 10.01 g/m*3 14.6 C 0 km/h
116 16-05-2017 09:35:00 14.6 C 9.76 g/m*3 14.6 C 0 km/h
117 16-05-2017 09:40:00 14.6 C 9.51 g/m*3 14.6 C 0 km/h
118 16-05-2017 09:45:00 14.9 C 9.43 g/m*3 14.9 C 0 km/h
119 16-05-2017 09:50:00 15.3 C 9.27 g/m*3 15.3 C 0 km/h
120 16-05-2017 09:55:00 15.8 C 9.96 g/m*3 15.8 C 0 km/h
121 16-05-2017 10:00:00 16.3 C 10.27 g/m*3 16.3 C 0 km/h
122 16-05-2017 10:05:00 16.7 C 10.09 g/m*3 16.7 C 1.6 km/h
123 16-05-2017 10:10:00 17.2 C 9.37 g/m*3 17.2 C 3.2 km/h
124 16-05-2017 10:15:00 17.6 C 10.05 g/m*3 17.6 C 0 km/h
125 16-05-2017 10:20:00 17.9 C 10.54 g/m*3 17.9 C 0 km/h
Sensor: Nr:Datum:Temp:Abs-Feuchte:Windchill:Wind:
Aussen-T/F 126 16-05-2017 10:25:00 18.2 C 9.95 g/m*3 18.2 C 3.2 km/h
127 16-05-2017 10:30:00 18.5 C 9.49 g/m*3 18.5 C 3.2 km/h
128 16-05-2017 10:35:00 18.8 C 9.66 g/m*3 18.8 C 3.2 km/h
129 16-05-2017 10:40:00 19.3 C 10.45 g/m*3 19.3 C 1.6 km/h
130 16-05-2017 10:45:00 19.6 C 10.13 g/m*3 19.6 C 1.6 km/h
131 16-05-2017 10:50:00 19.7 C 10.53 g/m*3 19.7 C 0 km/h
132 16-05-2017 10:55:00 19.9 C 10.82 g/m*3 19.9 C 1.6 km/h
133 16-05-2017 11:00:00 20.2 C 11.02 g/m*3 20.2 C 1.6 km/h
134 16-05-2017 11:05:00 20.4 C 11.14 g/m*3 20.4 C 1.6 km/h
135 16-05-2017 11:10:00 20.5 C 10.5 g/m*3 20.5 C 4.8 km/h
136 16-05-2017 11:15:00 20.7 C 10.08 g/m*3 20.7 C 6.4 km/h
137 16-05-2017 11:20:00 20.8 C 9.96 g/m*3 20.8 C 3.2 km/h
138 16-05-2017 11:25:00 21 C 10.08 g/m*3 21 C 1.6 km/h
139 16-05-2017 11:30:00 21.3 C 10.44 g/m*3 21.3 C 3.2 km/h
140 16-05-2017 11:35:00 21.6 C 11 g/m*3 21.6 C 1.6 km/h
141 16-05-2017 11:40:00 21.8 C 10.36 g/m*3 21.8 C 3.2 km/h
142 16-05-2017 11:45:00 21.9 C 10.03 g/m*3 21.9 C 4.8 km/h
143 16-05-2017 11:50:00 22.1 C 10.93 g/m*3 22.1 C 6.4 km/h
144 16-05-2017 11:55:00 22.3 C 11.06 g/m*3 22.3 C 4.8 km/h
145 16-05-2017 12:00:00 22.3 C 10.27 g/m*3 22.3 C 3.2 km/h
146 16-05-2017 12:05:00 22.4 C 10.13 g/m*3 22.4 C 8.1 km/h
147 16-05-2017 12:10:00 22.5 C 10.39 g/m*3 22.5 C 8.1 km/h
148 16-05-2017 12:15:00 22.6 C 10.45 g/m*3 22.6 C 3.2 km/h
149 16-05-2017 12:20:00 22.6 C 10.25 g/m*3 22.6 C 3.2 km/h
150 16-05-2017 12:25:00 22.6 C 9.64 g/m*3 22.6 C 3.2 km/h
Sensor: Nr:Datum:Temp:Abs-Feuchte:Windchill:Wind:
Aussen-T/F 151 16-05-2017 12:30:00 22.6 C 10.45 g/m*3 22.6 C 3.2 km/h
152 16-05-2017 12:35:00 22.6 C 10.25 g/m*3 22.6 C 4.8 km/h
153 16-05-2017 12:40:00 22.6 C 9.84 g/m*3 22.6 C 4.8 km/h
154 16-05-2017 12:45:00 22.7 C 10.1 g/m*3 22.7 C 3.2 km/h
155 16-05-2017 12:50:00 22.7 C 10.1 g/m*3 22.7 C 4.8 km/h
156 16-05-2017 12:55:00 22.7 C 9.7 g/m*3 22.7 C 4.8 km/h
157 16-05-2017 13:00:00 22.8 C 9.75 g/m*3 22.8 C 4.8 km/h
158 16-05-2017 13:05:00 22.8 C 9.75 g/m*3 22.8 C 8.1 km/h
159 16-05-2017 13:10:00 22.9 C 9.61 g/m*3 22.9 C 9.7 km/h
160 16-05-2017 13:15:00 23.1 C 8.89 g/m*3 23.1 C 6.4 km/h
161 16-05-2017 13:20:00 23.1 C 9.1 g/m*3 23.1 C 9.7 km/h
162 16-05-2017 13:25:00 23.2 C 9.15 g/m*3 23.2 C 6.4 km/h
163 16-05-2017 13:30:00 23.3 C 9.2 g/m*3 23.3 C 8.1 km/h
164 16-05-2017 13:35:00 23.3 C 9.41 g/m*3 23.3 C 9.7 km/h
165 16-05-2017 13:40:00 23.4 C 9.25 g/m*3 23.4 C 8.1 km/h
166 16-05-2017 13:45:00 23.4 C 9.04 g/m*3 23.4 C 8.1 km/h
167 16-05-2017 13:50:00 23.6 C 9.36 g/m*3 23.6 C 6.4 km/h
168 16-05-2017 13:55:00 23.7 C 9.41 g/m*3 23.7 C 6.4 km/h
169 16-05-2017 14:00:00 23.8 C 9.03 g/m*3 23.8 C 9.7 km/h
170 16-05-2017 14:05:00 23.8 C 9.03 g/m*3 23.8 C 1.6 km/h
171 16-05-2017 14:10:00 23.8 C 8.82 g/m*3 23.8 C 8.1 km/h
172 16-05-2017 14:15:00 23.9 C 9.09 g/m*3 23.9 C 3.2 km/h
173 16-05-2017 14:20:00 23.9 C 9.3 g/m*3 23.9 C 3.2 km/h
174 16-05-2017 14:25:00 23.9 C 9.09 g/m*3 23.9 C 6.4 km/h
175 16-05-2017 14:30:00 24.2 C 8.8 g/m*3 24.2 C 6.4 km/h
Sensor: Nr:Datum:Temp:Abs-Feuchte:Windchill:Wind:
Aussen-T/F 176 16-05-2017 14:35:00 24.4 C 9.12 g/m*3 24.4 C 6.4 km/h
177 16-05-2017 14:40:00 24.6 C 9 g/m*3 24.6 C 8.1 km/h
178 16-05-2017 14:45:00 24.8 C 9.56 g/m*3 24.8 C 4.8 km/h
179 16-05-2017 14:50:00 25.1 C 9.95 g/m*3 25.1 C 9.7 km/h
180 16-05-2017 14:55:00 25.2 C 10.01 g/m*3 25.2 C 9.7 km/h
181 16-05-2017 15:00:00 25.2 C 9.54 g/m*3 25.2 C 3.2 km/h
182 16-05-2017 15:05:00 25.2 C 9.08 g/m*3 25.2 C 6.4 km/h
183 16-05-2017 15:10:00 25.2 C 9.31 g/m*3 25.2 C 8.1 km/h
184 16-05-2017 15:15:00 25.4 C 9.65 g/m*3 25.4 C 9.7 km/h
185 16-05-2017 15:20:00 25.6 C 9.76 g/m*3 25.6 C 4.8 km/h
186 16-05-2017 15:25:00 26.2 C 9.85 g/m*3 26.2 C 6.4 km/h
187 16-05-2017 15:30:00 26.6 C 9.82 g/m*3 26.6 C 4.8 km/h
188 16-05-2017 15:35:00 27 C 10.04 g/m*3 27 C 8.1 km/h
189 16-05-2017 15:40:00 27.6 C 9.58 g/m*3 27.6 C 9.7 km/h
190 16-05-2017 15:45:00 27.8 C 10.76 g/m*3 27.8 C 4.8 km/h
191 16-05-2017 15:50:00 28.1 C 9.57 g/m*3 28.1 C 6.4 km/h
192 16-05-2017 15:55:00 28.4 C 10.01 g/m*3 28.4 C 12.9 km/h
193 16-05-2017 16:00:00 28.6 C 8.99 g/m*3 28.6 C 12.9 km/h
194 16-05-2017 16:05:00 28.6 C 9.27 g/m*3 28.6 C 9.7 km/h
195 16-05-2017 16:10:00 28.3 C 9.4 g/m*3 28.3 C 8.1 km/h
196 16-05-2017 16:15:00 28.3 C 9.12 g/m*3 28.3 C 4.8 km/h
197 16-05-2017 16:20:00 28.3 C 9.68 g/m*3 28.3 C 9.7 km/h
198 16-05-2017 16:25:00 28.4 C 9.17 g/m*3 28.4 C 8.1 km/h
199 16-05-2017 16:30:00 28.4 C 8.9 g/m*3 28.4 C 4.8 km/h
200 16-05-2017 16:35:00 28.5 C 9.5 g/m*3 28.5 C 4.8 km/h
Sensor: Nr:Datum:Temp:Abs-Feuchte:Windchill:Wind:
Aussen-T/F 201 16-05-2017 16:40:00 28.7 C 10.74 g/m*3 28.7 C 9.7 km/h
202 16-05-2017 16:45:00 28.6 C 9.27 g/m*3 28.6 C 9.7 km/h
203 16-05-2017 16:50:00 28.6 C 9.27 g/m*3 28.6 C 8.1 km/h
204 16-05-2017 16:55:00 28.9 C 10 g/m*3 28.9 C 6.4 km/h
205 16-05-2017 17:00:00 29.2 C 9 g/m*3 29.2 C 9.7 km/h
206 16-05-2017 17:05:00 29 C 9.48 g/m*3 29 C 6.4 km/h
207 16-05-2017 17:10:00 29.2 C 9.58 g/m*3 29.2 C 4.8 km/h
208 16-05-2017 17:15:00 29.6 C 9.5 g/m*3 29.6 C 6.4 km/h
209 16-05-2017 17:20:00 29.8 C 9.6 g/m*3 29.8 C 6.4 km/h
210 16-05-2017 17:25:00 29.9 C 9.35 g/m*3 29.9 C 6.4 km/h
211 16-05-2017 17:30:00 29.9 C 9.05 g/m*3 29.9 C 6.4 km/h
212 16-05-2017 17:35:00 29.8 C 9.3 g/m*3 29.8 C 8.1 km/h
213 16-05-2017 17:40:00 29.7 C 9.55 g/m*3 29.7 C 8.1 km/h
214 16-05-2017 17:45:00 29.6 C 9.2 g/m*3 29.6 C 8.1 km/h
215 16-05-2017 17:50:00 29.6 C 9.2 g/m*3 29.6 C 6.4 km/h
216 16-05-2017 17:55:00 29.8 C 9 g/m*3 29.8 C 4.8 km/h
217 16-05-2017 18:00:00 29.7 C 8.95 g/m*3 29.7 C 4.8 km/h
218 16-05-2017 18:05:00 29.6 C 9.2 g/m*3 29.6 C 14.5 km/h
219 16-05-2017 18:10:00 29.4 C 9.39 g/m*3 29.4 C 9.7 km/h
220 16-05-2017 18:15:00 29.5 C 9.15 g/m*3 29.5 C 4.8 km/h
221 16-05-2017 18:20:00 29.5 C 9.44 g/m*3 29.5 C 4.8 km/h
222 16-05-2017 18:25:00 29.5 C 10.03 g/m*3 29.5 C 6.4 km/h
223 16-05-2017 18:30:00 29.5 C 8.85 g/m*3 29.5 C 9.7 km/h
224 16-05-2017 18:35:00 29.2 C 9.58 g/m*3 29.2 C 4.8 km/h
225 16-05-2017 18:40:00 29.2 C 9.29 g/m*3 29.2 C 8.1 km/h
Sensor: Nr:Datum:Temp:Abs-Feuchte:Windchill:Wind:
Aussen-T/F 226 16-05-2017 18:45:00 28.9 C 8.86 g/m*3 28.9 C 9.7 km/h
227 16-05-2017 18:50:00 28.6 C 9.55 g/m*3 28.6 C 11.3 km/h
228 16-05-2017 18:55:00 28.4 C 8.9 g/m*3 28.4 C 8.1 km/h
229 16-05-2017 19:00:00 28.2 C 9.07 g/m*3 28.2 C 6.4 km/h
230 16-05-2017 19:05:00 28.2 C 9.35 g/m*3 28.2 C 9.7 km/h
231 16-05-2017 19:10:00 28.2 C 9.62 g/m*3 28.2 C 3.2 km/h
232 16-05-2017 19:15:00 28.2 C 9.07 g/m*3 28.2 C 6.4 km/h
233 16-05-2017 19:20:00 27.8 C 8.88 g/m*3 27.8 C 4.8 km/h
234 16-05-2017 19:25:00 27.6 C 8.78 g/m*3 27.6 C 3.2 km/h
235 16-05-2017 19:30:00 27.3 C 9.16 g/m*3 27.3 C 6.4 km/h
236 16-05-2017 19:35:00 27.1 C 9.83 g/m*3 27.1 C 9.7 km/h
237 16-05-2017 19:40:00 26.9 C 10.49 g/m*3 26.9 C 4.8 km/h
238 16-05-2017 19:45:00 26.7 C 11.14 g/m*3 26.7 C 3.2 km/h
239 16-05-2017 19:50:00 26.6 C 10.32 g/m*3 26.6 C 3.2 km/h
240 16-05-2017 19:55:00 26.4 C 11.2 g/m*3 26.4 C 1.6 km/h
241 16-05-2017 20:00:00 25.9 C 10.89 g/m*3 25.9 C 3.2 km/h
242 16-05-2017 20:05:00 25.3 C 10.77 g/m*3 25.3 C 1.6 km/h
243 16-05-2017 20:10:00 24.5 C 10.97 g/m*3 24.5 C 1.6 km/h
244 16-05-2017 20:15:00 23.8 C 10.11 g/m*3 23.8 C 0 km/h
245 16-05-2017 20:20:00 23.4 C 10.72 g/m*3 23.4 C 0 km/h
246 16-05-2017 20:25:00 23.2 C 10.81 g/m*3 23.2 C 1.6 km/h
247 16-05-2017 20:30:00 22.8 C 10.57 g/m*3 22.8 C 1.6 km/h
248 16-05-2017 20:35:00 22.4 C 10.53 g/m*3 22.4 C 0 km/h
249 16-05-2017 20:40:00 21.9 C 10.23 g/m*3 21.9 C 1.6 km/h
250 16-05-2017 20:45:00 21.5 C 10.37 g/m*3 21.5 C 0 km/h
Sensor: Nr:Datum:Temp:Abs-Feuchte:Windchill:Wind:
Aussen-T/F 251 16-05-2017 20:50:00 21.1 C 10.13 g/m*3 21.1 C 0 km/h
252 16-05-2017 20:55:00 20.7 C 10.26 g/m*3 20.7 C 1.6 km/h
253 16-05-2017 21:00:00 20.4 C 10.44 g/m*3 20.4 C 1.6 km/h
254 16-05-2017 21:05:00 20.1 C 10.08 g/m*3 20.1 C 0 km/h
255 16-05-2017 21:10:00 19.8 C 10.25 g/m*3 19.8 C 1.6 km/h
256 16-05-2017 21:15:00 19.6 C 10.3 g/m*3 19.6 C 0 km/h
257 16-05-2017 21:20:00 19.3 C 10.12 g/m*3 19.3 C 0 km/h
258 16-05-2017 21:25:00 19.1 C 10.16 g/m*3 19.1 C 1.6 km/h
259 16-05-2017 21:30:00 18.9 C 10.04 g/m*3 18.9 C 0 km/h
260 16-05-2017 21:35:00 18.7 C 10.25 g/m*3 18.7 C 0 km/h
261 16-05-2017 21:40:00 18.6 C 10.03 g/m*3 18.6 C 1.6 km/h
262 16-05-2017 21:45:00 18.4 C 10.07 g/m*3 18.4 C 1.6 km/h
263 16-05-2017 21:50:00 18.3 C 9.85 g/m*3 18.3 C 1.6 km/h
264 16-05-2017 21:55:00 18.3 C 9.85 g/m*3 18.3 C 0 km/h
265 16-05-2017 22:00:00 18.3 C 10.01 g/m*3 18.3 C 0 km/h
266 16-05-2017 22:05:00 18.2 C 9.79 g/m*3 18.2 C 1.6 km/h
267 16-05-2017 22:10:00 18.1 C 9.89 g/m*3 18.1 C 1.6 km/h
268 16-05-2017 22:15:00 18.1 C 9.73 g/m*3 18.1 C 1.6 km/h
269 16-05-2017 22:20:00 18.1 C 9.89 g/m*3 18.1 C 0 km/h
270 16-05-2017 22:25:00 18 C 9.83 g/m*3 18 C 1.6 km/h
271 16-05-2017 22:30:00 17.9 C 9.92 g/m*3 17.9 C 0 km/h
272 16-05-2017 22:35:00 17.9 C 9.92 g/m*3 17.9 C 0 km/h
273 16-05-2017 22:40:00 17.8 C 9.87 g/m*3 17.8 C 1.6 km/h
274 16-05-2017 22:45:00 17.8 C 9.71 g/m*3 17.8 C 1.6 km/h
275 16-05-2017 22:50:00 17.7 C 9.81 g/m*3 17.7 C 0 km/h
Sensor: Nr:Datum:Temp:Abs-Feuchte:Windchill:Wind:
Aussen-T/F 276 16-05-2017 22:55:00 17.6 C 9.75 g/m*3 17.6 C 0 km/h
277 16-05-2017 23:00:00 17.6 C 9.9 g/m*3 17.6 C 0 km/h
278 16-05-2017 23:05:00 17.5 C 9.84 g/m*3 17.5 C 0 km/h
279 16-05-2017 23:10:00 17.5 C 9.84 g/m*3 17.5 C 0 km/h
280 16-05-2017 23:15:00 17.4 C 10.08 g/m*3 17.4 C 0 km/h
281 16-05-2017 23:20:00 17.3 C 10.16 g/m*3 17.3 C 0 km/h
282 16-05-2017 23:25:00 17.3 C 10.16 g/m*3 17.3 C 0 km/h
283 16-05-2017 23:30:00 17.2 C 9.96 g/m*3 17.2 C 0 km/h
284 16-05-2017 23:35:00 17.1 C 10.04 g/m*3 17.1 C 0 km/h
285 16-05-2017 23:40:00 17.1 C 10.04 g/m*3 17.1 C 0 km/h
286 16-05-2017 23:45:00 17.1 C 10.34 g/m*3 17.1 C 0 km/h
287 16-05-2017 23:50:00 16.9 C 10.07 g/m*3 16.9 C 0 km/h
288 16-05-2017 23:55:00 16.8 C 10.01 g/m*3 16.8 C 0 km/h

Legende:
   Min
   Max


Maximal/Minimal-Werte vom 16.05.2017 - 16.05.2017

Sensor Min Max Avg
Temp
(Aussen-T/F)
10.8 °C
16-05-2017  06:40:00
29.9 °C
16-05-2017  17:25:00
18.86 °C
Abs-Feuchte
(Aussen-T/F)
7.79 g/m*3
16-05-2017  00:00:00
11.2 g/m*3
16-05-2017  19:55:00
9.31 g/m*3
Windchill
(Aussen-T/F)
10.8 C
16-05-2017  06:40:00
29.9 C
16-05-2017  17:25:00
18.8 C

Die Daten stammen von einer Davis Vantage Pro 2 Wetter-Station und werden unter Linux mit der Software wview2wettercgi und aufbereitet. Alle Angaben erfolgen ohne Gewähr für ihre Vollständigkeit oder Richtigkeit.
Kontakt: Rainer Krienke krienke@uni-koblenz.de . Meine Webseiten an der Uni Koblenz oder privat.
Version: $Revision: 0.78 $